Time;durP1;ratioP1;P1;durP2;ratioP2;P2;SDS_P1;SDS_P2;PMS_P1;PMS_P2;Temp;Humidity;BMP_temperature;BMP_pressure;BME280_temperature;BME280_humidity;BME280_pressure;Samples;Min_cycle;Max_cycle;Signal;HPM_P1;HPM_P2
2021/08/16 00:01:22;;;;;;;;;4.67;4.00;;;;;;;;5072830;28;50946;-55
2021/08/16 00:03:47;;;;;;;;;5.00;5.00;;;;;;;;5072420;28;51335;-53
2021/08/16 00:06:13;;;;;;;;;3.67;3.67;;;;;;;;5072606;28;51167;-54
2021/08/16 00:08:38;;;;;;;;;4.67;4.33;;;;;;;;5072119;28;51055;-54
2021/08/16 00:11:04;;;;;;;;;4.33;4.00;;;;;;;;5072235;28;50957;-54
2021/08/16 00:13:30;;;;;;;;;3.00;2.67;;;;;;;;5071935;28;51054;-55
2021/08/16 00:15:56;;;;;;;;;4.33;4.33;;;;;;;;5065986;27;51248;-54
2021/08/16 00:18:21;;;;;;;;;4.00;4.00;;;;;;;;5064288;28;51392;-53
2021/08/16 00:20:46;;;;;;;;;2.00;2.00;;;;;;;;5072020;28;51106;-53
2021/08/16 00:23:11;;;;;;;;;4.00;4.00;;;;;;;;5072106;28;51261;-53
2021/08/16 00:25:36;;;;;;;;;3.67;3.67;;;;;;;;5071969;28;51025;-53
2021/08/16 00:28:02;;;;;;;;;4.00;3.00;;;;;;;;5071929;28;51881;-52
2021/08/16 00:30:27;;;;;;;;;4.00;4.00;;;;;;;;5072063;28;50917;-55
2021/08/16 00:32:52;;;;;;;;;5.00;3.00;;;;;;;;5072181;28;51212;-51
2021/08/16 00:35:17;;;;;;;;;4.33;4.00;;;;;;;;5076055;28;51131;-54
2021/08/16 00:37:44;;;;;;;;;2.00;1.67;;;;;;;;5075359;28;51671;-52
2021/08/16 00:40:10;;;;;;;;;5.00;2.00;;;;;;;;5075378;28;50931;-54
2021/08/16 00:42:35;;;;;;;;;3.00;3.00;;;;;;;;5074999;28;51108;-55
2021/08/16 00:45:03;;;;;;;;;3.67;3.67;;;;;;;;5075617;28;51286;-54
2021/08/16 00:47:29;;;;;;;;;6.00;6.00;;;;;;;;5074746;28;51048;-55
2021/08/16 00:49:54;;;;;;;;;3.00;3.00;;;;;;;;5075130;28;51037;-54
2021/08/16 00:52:19;;;;;;;;;3.00;3.00;;;;;;;;5075215;28;51039;-54
2021/08/16 00:54:44;;;;;;;;;4.00;3.00;;;;;;;;5075404;28;51290;-54
2021/08/16 00:57:10;;;;;;;;;2.33;1.67;;;;;;;;5074711;28;51913;-54
2021/08/16 00:59:35;;;;;;;;;3.33;3.00;;;;;;;;5074987;28;50960;-50
2021/08/16 01:02:00;;;;;;;;;1.00;1.00;;;;;;;;5075142;28;50996;-52
2021/08/16 01:04:27;;;;;;;;;3.00;2.00;;;;;;;;5075073;28;51386;-51
2021/08/16 01:06:52;;;;;;;;;2.00;2.00;;;;;;;;5074688;28;52158;-52
2021/08/16 01:09:17;;;;;;;;;2.00;2.00;;;;;;;;5074874;28;51050;-51
2021/08/16 01:11:43;;;;;;;;;3.00;3.00;;;;;;;;5074959;28;51104;-53
2021/08/16 01:14:08;;;;;;;;;2.00;2.00;;;;;;;;5075035;28;51357;-53
2021/08/16 01:16:33;;;;;;;;;3.00;2.00;;;;;;;;5074775;28;51201;-51
2021/08/16 01:18:58;;;;;;;;;3.67;3.33;;;;;;;;5074528;28;51161;-52
2021/08/16 01:21:24;;;;;;;;;3.00;2.33;;;;;;;;5075374;28;51233;-52
2021/08/16 01:23:49;;;;;;;;;3.00;2.00;;;;;;;;5075010;28;50965;-53
2021/08/16 01:26:15;;;;;;;;;3.67;2.33;;;;;;;;5074521;28;51687;-53
2021/08/16 01:28:40;;;;;;;;;3.00;2.67;;;;;;;;5074604;28;51044;-53
2021/08/16 01:31:06;;;;;;;;;1.00;1.00;;;;;;;;5074795;28;51395;-53
2021/08/16 01:33:33;;;;;;;;;2.33;2.00;;;;;;;;5074847;28;51269;-53
2021/08/16 01:35:58;;;;;;;;;3.00;2.00;;;;;;;;5074489;28;52002;-52
2021/08/16 01:38:30;;;;;;;;;4.33;2.67;;;;;;;;5074303;28;50989;-52
2021/08/16 01:40:55;;;;;;;;;3.00;2.00;;;;;;;;5074528;28;51033;-51
2021/08/16 01:43:21;;;;;;;;;2.33;2.00;;;;;;;;5074683;28;50949;-52
2021/08/16 01:45:46;;;;;;;;;3.67;3.00;;;;;;;;5072998;28;51237;-53
2021/08/16 01:48:14;;;;;;;;;1.33;1.00;;;;;;;;5074326;28;51066;-54
2021/08/16 01:50:40;;;;;;;;;3.00;2.00;;;;;;;;5074477;28;50944;-54
2021/08/16 01:53:05;;;;;;;;;2.33;1.33;;;;;;;;5074553;28;51006;-54
2021/08/16 01:55:30;;;;;;;;;1.00;1.00;;;;;;;;5073961;28;51122;-53
2021/08/16 01:57:56;;;;;;;;;1.00;1.00;;;;;;;;5074262;28;51057;-54
2021/08/16 02:00:21;;;;;;;;;1.67;1.67;;;;;;;;5074238;28;51167;-54
2021/08/16 02:02:46;;;;;;;;;2.67;2.00;;;;;;;;5074456;28;51141;-54
2021/08/16 02:05:11;;;;;;;;;2.67;2.67;;;;;;;;5067834;28;51200;-52
2021/08/16 02:07:37;;;;;;;;;2.67;2.33;;;;;;;;5071489;28;50934;-52
2021/08/16 02:10:03;;;;;;;;;2.00;2.00;;;;;;;;5074243;28;51134;-52
2021/08/16 02:12:29;;;;;;;;;4.00;3.00;;;;;;;;5073953;28;50946;-49
2021/08/16 02:14:54;;;;;;;;;5.00;3.00;;;;;;;;5073863;28;51778;-53
2021/08/16 02:17:19;;;;;;;;;1.33;1.33;;;;;;;;5070938;28;51052;-49
2021/08/16 02:19:46;;;;;;;;;4.00;2.00;;;;;;;;5074246;28;51120;-50
2021/08/16 02:22:12;;;;;;;;;2.67;1.33;;;;;;;;5074108;28;50951;-54
2021/08/16 02:24:37;;;;;;;;;4.00;3.67;;;;;;;;5073715;28;52615;-52
2021/08/16 02:27:02;;;;;;;;;2.00;2.00;;;;;;;;5073419;28;51044;-50
2021/08/16 02:29:27;;;;;;;;;1.00;1.00;;;;;;;;5074047;28;51064;-53
2021/08/16 02:31:53;;;;;;;;;2.00;1.67;;;;;;;;5055791;28;51395;-53
2021/08/16 02:34:18;;;;;;;;;1.00;1.00;;;;;;;;5073619;28;51977;-49
2021/08/16 02:36:43;;;;;;;;;2.67;2.00;;;;;;;;5073635;28;50839;-51
2021/08/16 02:39:09;;;;;;;;;2.33;2.00;;;;;;;;5073751;28;51213;-54
2021/08/16 02:41:35;;;;;;;;;2.00;2.00;;;;;;;;5073576;28;51104;-54
2021/08/16 02:44:00;;;;;;;;;2.33;2.33;;;;;;;;5073538;28;52039;-54
2021/08/16 02:46:26;;;;;;;;;1.67;1.33;;;;;;;;5073604;28;50992;-51
2021/08/16 02:48:51;;;;;;;;;2.00;2.00;;;;;;;;5073744;28;51257;-54
2021/08/16 02:51:17;;;;;;;;;1.33;1.00;;;;;;;;5073647;28;51307;-54
2021/08/16 02:53:42;;;;;;;;;3.00;1.33;;;;;;;;5073321;28;52251;-54
2021/08/16 02:56:07;;;;;;;;;1.00;1.00;;;;;;;;5054468;28;51010;-54
2021/08/16 02:58:32;;;;;;;;;2.00;2.00;;;;;;;;5071318;28;51337;-54
2021/08/16 03:00:57;;;;;;;;;1.00;1.00;;;;;;;;5070275;28;51160;-54
2021/08/16 03:03:23;;;;;;;;;1.33;1.33;;;;;;;;5073442;28;51261;-54
2021/08/16 03:05:48;;;;;;;;;2.00;2.00;;;;;;;;5065331;28;51088;-54
2021/08/16 03:08:13;;;;;;;;;3.00;2.33;;;;;;;;5054963;28;51151;-53
2021/08/16 03:10:38;;;;;;;;;4.00;3.00;;;;;;;;5073142;28;51140;-52
2021/08/16 03:13:04;;;;;;;;;3.33;3.00;;;;;;;;5072905;28;50988;-54
2021/08/16 03:15:29;;;;;;;;;1.33;1.33;;;;;;;;5073127;28;51108;-53
2021/08/16 03:17:55;;;;;;;;;3.00;2.00;;;;;;;;5073482;28;50998;-53
2021/08/16 03:20:20;;;;;;;;;2.00;2.00;;;;;;;;5073298;28;50981;-53
2021/08/16 03:22:46;;;;;;;;;3.00;3.00;;;;;;;;5073148;28;50910;-53
2021/08/16 03:25:11;;;;;;;;;4.00;3.00;;;;;;;;5073083;28;50999;-53
2021/08/16 03:27:37;;;;;;;;;5.00;3.00;;;;;;;;5054584;28;51132;-54
2021/08/16 03:30:04;;;;;;;;;4.00;3.33;;;;;;;;5073120;28;50973;-53
2021/08/16 03:32:29;;;;;;;;;3.00;3.00;;;;;;;;5073042;28;52203;-50
2021/08/16 03:34:54;;;;;;;;;2.00;2.00;;;;;;;;5072733;28;50875;-53
2021/08/16 03:37:19;;;;;;;;;2.67;2.67;;;;;;;;5073174;28;50934;-53
2021/08/16 03:39:44;;;;;;;;;4.00;4.00;;;;;;;;5072994;28;50829;-53
2021/08/16 03:42:10;;;;;;;;;4.00;3.00;;;;;;;;5072287;28;51719;-51
2021/08/16 03:44:35;;;;;;;;;2.33;2.00;;;;;;;;5072597;28;50937;-53
2021/08/16 03:47:00;;;;;;;;;4.67;2.00;;;;;;;;5072969;28;51069;-52
2021/08/16 03:49:26;;;;;;;;;3.00;3.00;;;;;;;;5072771;28;50855;-53
2021/08/16 03:51:51;;;;;;;;;4.00;4.00;;;;;;;;5072474;28;51062;-54
2021/08/16 03:54:16;;;;;;;;;5.00;3.00;;;;;;;;5072549;28;51108;-53
2021/08/16 03:56:41;;;;;;;;;6.00;4.00;;;;;;;;5072474;28;50916;-53
2021/08/16 03:59:06;;;;;;;;;2.00;2.00;;;;;;;;5072536;28;51726;-52
2021/08/16 04:01:31;;;;;;;;;4.33;2.67;;;;;;;;5072642;28;52170;-53
2021/08/16 04:04:01;;;;;;;;;3.00;3.00;;;;;;;;5072517;28;50878;-58
2021/08/16 04:06:26;;;;;;;;;2.67;2.67;;;;;;;;5063767;28;51125;-51
2021/08/16 04:08:51;;;;;;;;;3.00;3.00;;;;;;;;5074060;28;51057;-53
2021/08/16 04:11:16;;;;;;;;;2.00;2.00;;;;;;;;5075211;28;50972;-54
2021/08/16 04:13:41;;;;;;;;;4.00;2.33;;;;;;;;5057729;28;50996;-54
2021/08/16 04:16:07;;;;;;;;;3.67;3.00;;;;;;;;5076214;28;51255;-54
2021/08/16 04:18:32;;;;;;;;;4.67;3.00;;;;;;;;5067127;28;51079;-52
2021/08/16 04:20:57;;;;;;;;;3.33;3.00;;;;;;;;5075960;28;51816;-50
2021/08/16 04:23:23;;;;;;;;;3.00;2.67;;;;;;;;5075919;28;50904;-53
2021/08/16 04:25:48;;;;;;;;;3.33;3.00;;;;;;;;5075818;28;50865;-53
2021/08/16 04:28:14;;;;;;;;;2.00;2.00;;;;;;;;5076068;28;51126;-54
2021/08/16 04:30:39;;;;;;;;;2.33;2.33;;;;;;;;5075460;28;52202;-51
2021/08/16 04:33:04;;;;;;;;;4.67;4.00;;;;;;;;5075905;28;50922;-54
2021/08/16 04:35:30;;;;;;;;;2.33;2.33;;;;;;;;5075830;28;50859;-51
2021/08/16 04:37:55;;;;;;;;;3.67;2.67;;;;;;;;5075743;28;50927;-53
2021/08/16 04:40:20;;;;;;;;;3.00;3.00;;;;;;;;5075034;28;52330;-52
2021/08/16 04:42:46;;;;;;;;;2.00;1.33;;;;;;;;5075496;28;51111;-53
2021/08/16 04:45:11;;;;;;;;;3.00;3.00;;;;;;;;5075553;28;50925;-52
2021/08/16 04:47:37;;;;;;;;;2.00;2.00;;;;;;;;5057610;28;51452;-51
2021/08/16 04:50:04;;;;;;;;;3.00;2.67;;;;;;;;5075282;28;52184;-54
2021/08/16 04:52:29;;;;;;;;;2.67;2.67;;;;;;;;5056958;28;51156;-53
2021/08/16 04:54:54;;;;;;;;;2.33;2.33;;;;;;;;5075446;28;50944;-54
2021/08/16 04:57:30;;;;;;;;;2.00;2.00;;;;;;;;5075232;28;50974;-51
2021/08/16 04:59:55;;;;;;;;;2.00;1.67;;;;;;;;5075145;28;51736;-50
2021/08/16 05:02:20;;;;;;;;;3.00;3.00;;;;;;;;5075317;28;50896;-52
2021/08/16 05:04:49;;;;;;;;;4.00;3.00;;;;;;;;5054702;28;51042;-51
2021/08/16 05:07:14;;;;;;;;;2.00;2.00;;;;;;;;5068797;28;51340;-52
2021/08/16 05:09:39;;;;;;;;;3.00;3.00;;;;;;;;5075320;28;51585;-53
2021/08/16 05:12:05;;;;;;;;;4.33;4.00;;;;;;;;5074807;28;50965;-52
2021/08/16 05:14:30;;;;;;;;;4.00;3.00;;;;;;;;5075320;28;51201;-52
2021/08/16 05:16:55;;;;;;;;;2.67;2.00;;;;;;;;5075256;28;51299;-54
2021/08/16 05:19:20;;;;;;;;;2.00;1.67;;;;;;;;5074640;28;52219;-54
2021/08/16 05:21:45;;;;;;;;;1.00;1.00;;;;;;;;5074813;28;51009;-52
2021/08/16 05:24:11;;;;;;;;;2.33;1.33;;;;;;;;5075184;28;51080;-51
2021/08/16 05:26:36;;;;;;;;;2.33;2.33;;;;;;;;5056713;28;51233;-53
2021/08/16 05:29:01;;;;;;;;;1.00;1.00;;;;;;;;5074589;28;51538;-50
2021/08/16 05:31:26;;;;;;;;;2.67;2.00;;;;;;;;5056578;28;51832;-52
2021/08/16 05:33:52;;;;;;;;;1.67;1.67;;;;;;;;5075014;28;50914;-53
2021/08/16 05:36:17;;;;;;;;;1.00;1.00;;;;;;;;5074991;28;51154;-51
2021/08/16 05:38:43;;;;;;;;;0.33;0.33;;;;;;;;5074220;28;52195;-52
2021/08/16 05:41:08;;;;;;;;;2.33;2.00;;;;;;;;5074128;28;51163;-53
2021/08/16 05:43:33;;;;;;;;;2.33;2.00;;;;;;;;5074648;28;51160;-50
2021/08/16 05:45:59;;;;;;;;;0.33;0.33;;;;;;;;5074807;28;50946;-51
2021/08/16 05:48:24;;;;;;;;;2.00;2.00;;;;;;;;5074287;28;51122;-53
2021/08/16 05:50:49;;;;;;;;;2.67;2.33;;;;;;;;5074441;28;51062;-54
2021/08/16 05:53:14;;;;;;;;;1.00;1.00;;;;;;;;5074331;28;51288;-52
2021/08/16 05:55:39;;;;;;;;;2.00;2.00;;;;;;;;5073714;28;51361;-53
2021/08/16 05:58:05;;;;;;;;;2.33;2.00;;;;;;;;5074223;28;52118;-54
2021/08/16 06:00:30;;;;;;;;;2.00;1.33;;;;;;;;5074345;28;50928;-53
2021/08/16 06:02:55;;;;;;;;;2.33;2.33;;;;;;;;5074375;28;51057;-53
2021/08/16 06:05:20;;;;;;;;;1.67;1.67;;;;;;;;5056143;28;51012;-57
2021/08/16 06:07:45;;;;;;;;;2.33;2.33;;;;;;;;5073908;28;52282;-53
2021/08/16 06:10:11;;;;;;;;;1.33;1.33;;;;;;;;5074018;28;50930;-54
2021/08/16 06:12:37;;;;;;;;;2.00;2.00;;;;;;;;5055529;28;51066;-53
2021/08/16 06:15:03;;;;;;;;;2.67;2.00;;;;;;;;5074362;28;50921;-53
2021/08/16 06:17:29;;;;;;;;;3.00;3.00;;;;;;;;5055591;28;51963;-53
2021/08/16 06:19:54;;;;;;;;;3.00;2.00;;;;;;;;5061785;27;51110;-54
2021/08/16 06:22:20;;;;;;;;;1.00;1.00;;;;;;;;5072057;28;51188;-58
2021/08/16 06:24:45;;;;;;;;;1.00;1.00;;;;;;;;5074218;28;50800;-54
2021/08/16 06:27:10;;;;;;;;;1.00;1.00;;;;;;;;5073466;28;50949;-53
2021/08/16 06:29:35;;;;;;;;;3.00;2.00;;;;;;;;5074027;28;50950;-50
2021/08/16 06:32:01;;;;;;;;;1.00;0.33;;;;;;;;5072634;28;51164;-53
2021/08/16 06:34:26;;;;;;;;;1.00;1.00;;;;;;;;5074129;28;51122;-52
2021/08/16 06:36:55;;;;;;;;;1.00;1.00;;;;;;;;5073225;28;51761;-53
2021/08/16 06:39:22;;;;;;;;;3.00;3.00;;;;;;;;5073622;28;50993;-52
2021/08/16 06:41:51;;;;;;;;;1.00;1.00;;;;;;;;5073290;28;51238;-49
2021/08/16 06:44:17;;;;;;;;;1.00;1.00;;;;;;;;5055594;28;50883;-53
2021/08/16 06:46:43;;;;;;;;;1.33;1.33;;;;;;;;5054918;28;52697;-50
2021/08/16 06:49:08;;;;;;;;;2.33;2.00;;;;;;;;5073406;28;51013;-54
2021/08/16 06:51:33;;;;;;;;;1.67;1.67;;;;;;;;5073295;28;51156;-54
2021/08/16 06:53:59;;;;;;;;;3.00;2.00;;;;;;;;5073235;28;51332;-53
2021/08/16 06:56:24;;;;;;;;;2.33;1.33;;;;;;;;5072863;28;51962;-55
2021/08/16 06:58:49;;;;;;;;;1.00;1.00;;;;;;;;5073289;28;51119;-56
2021/08/16 07:01:25;;;;;;;;;3.00;2.00;;;;;;;;5072877;28;51213;-51
2021/08/16 07:03:50;;;;;;;;;1.00;1.00;;;;;;;;5072959;28;51308;-53
2021/08/16 07:06:15;;;;;;;;;1.00;1.00;;;;;;;;5054577;28;51005;-53
2021/08/16 07:08:41;;;;;;;;;2.00;2.00;;;;;;;;5073254;28;51020;-51
2021/08/16 07:11:06;;;;;;;;;2.00;1.00;;;;;;;;5072872;28;51081;-53
2021/08/16 07:13:32;;;;;;;;;1.00;0.67;;;;;;;;5073260;28;51221;-53
2021/08/16 07:15:57;;;;;;;;;0.00;0.00;;;;;;;;5072941;28;51978;-55
2021/08/16 07:18:22;;;;;;;;;1.00;1.00;;;;;;;;5073190;28;51067;-52
2021/08/16 07:20:47;;;;;;;;;2.00;2.00;;;;;;;;5072766;28;50977;-53
2021/08/16 07:23:12;;;;;;;;;1.00;1.00;;;;;;;;5072964;28;51113;-53
2021/08/16 07:25:38;;;;;;;;;1.67;1.67;;;;;;;;5054250;28;53818;-53
2021/08/16 07:28:03;;;;;;;;;3.00;3.00;;;;;;;;5072958;28;51061;-54
2021/08/16 07:30:29;;;;;;;;;1.00;1.00;;;;;;;;5054466;28;51125;-56
2021/08/16 07:32:54;;;;;;;;;2.67;1.67;;;;;;;;5073049;28;51002;-54
2021/08/16 07:35:21;;;;;;;;;2.00;2.00;;;;;;;;5071987;28;50891;-51
2021/08/16 07:37:46;;;;;;;;;1.33;1.00;;;;;;;;5054467;28;50954;-53
2021/08/16 07:40:12;;;;;;;;;1.00;1.00;;;;;;;;5071930;28;51139;-52
2021/08/16 07:42:38;;;;;;;;;1.00;1.00;;;;;;;;5072855;28;51171;-54
2021/08/16 07:45:03;;;;;;;;;1.67;1.67;;;;;;;;5053786;28;52657;-53
2021/08/16 07:47:29;;;;;;;;;1.33;0.67;;;;;;;;5072491;28;50946;-54
2021/08/16 07:49:54;;;;;;;;;0.67;0.67;;;;;;;;5072164;28;51035;-52
2021/08/16 07:52:19;;;;;;;;;2.00;1.00;;;;;;;;5072162;28;51375;-53
2021/08/16 07:54:44;;;;;;;;;4.00;4.00;;;;;;;;5071896;28;51116;-53
2021/08/16 07:57:10;;;;;;;;;3.00;3.00;;;;;;;;5072098;28;50941;-55
2021/08/16 07:59:35;;;;;;;;;4.00;4.00;;;;;;;;5072277;28;51124;-52
2021/08/16 08:02:01;;;;;;;;;2.00;2.00;;;;;;;;5072781;28;51457;-51
2021/08/16 08:04:26;;;;;;;;;3.00;3.00;;;;;;;;5072083;28;52844;-52
2021/08/16 08:06:51;;;;;;;;;5.00;5.00;;;;;;;;5072089;28;51119;-54
2021/08/16 08:09:17;;;;;;;;;4.00;4.00;;;;;;;;5054070;28;51010;-54
2021/08/16 08:11:42;;;;;;;;;3.67;3.67;;;;;;;;5072290;28;50917;-54
2021/08/16 08:14:07;;;;;;;;;2.00;1.00;;;;;;;;5071541;28;51122;-53
2021/08/16 08:16:32;;;;;;;;;1.33;1.33;;;;;;;;5072403;28;50981;-54
2021/08/16 08:18:57;;;;;;;;;2.00;2.00;;;;;;;;5072174;28;51103;-53
2021/08/16 08:21:23;;;;;;;;;4.00;3.67;;;;;;;;5066982;27;52228;-53
2021/08/16 08:23:48;;;;;;;;;2.67;2.67;;;;;;;;5071752;28;52057;-53
2021/08/16 08:26:13;;;;;;;;;2.00;2.00;;;;;;;;5071961;28;50870;-54
2021/08/16 08:28:38;;;;;;;;;4.00;4.00;;;;;;;;5072330;28;51033;-53
2021/08/16 08:31:04;;;;;;;;;3.67;3.67;;;;;;;;5072430;27;51797;-54
2021/08/16 08:33:29;;;;;;;;;3.00;3.00;;;;;;;;5053651;28;51236;-52
2021/08/16 08:35:54;;;;;;;;;1.67;1.67;;;;;;;;5053794;28;51032;-49
2021/08/16 08:38:20;;;;;;;;;0.00;0.00;;;;;;;;5072232;28;51015;-54
2021/08/16 08:40:45;;;;;;;;;2.00;2.00;;;;;;;;5071573;28;50924;-52
2021/08/16 08:43:11;;;;;;;;;1.00;1.00;;;;;;;;5071821;28;52352;-53
2021/08/16 08:45:37;;;;;;;;;1.00;1.00;;;;;;;;5071980;28;50892;-52
2021/08/16 08:48:03;;;;;;;;;2.00;1.00;;;;;;;;5052949;28;51057;-54
2021/08/16 08:50:28;;;;;;;;;2.33;2.33;;;;;;;;5053866;28;50896;-54
2021/08/16 08:52:54;;;;;;;;;1.67;1.67;;;;;;;;5071656;28;51921;-53
2021/08/16 08:55:19;;;;;;;;;3.00;3.00;;;;;;;;5055486;28;50998;-52
2021/08/16 08:57:44;;;;;;;;;2.00;1.00;;;;;;;;5075019;28;50988;-50
2021/08/16 09:00:15;;;;;;;;;2.00;2.00;;;;;;;;5075421;28;51086;-52
2021/08/16 09:02:41;;;;;;;;;1.00;1.00;;;;;;;;5075106;28;51976;-55
2021/08/16 09:05:06;;;;;;;;;3.67;3.00;;;;;;;;5075167;28;50875;-54
2021/08/16 09:07:32;;;;;;;;;2.00;2.00;;;;;;;;5075374;28;51046;-52
2021/08/16 09:09:57;;;;;;;;;2.00;1.00;;;;;;;;5075338;28;50873;-54
2021/08/16 09:12:32;;;;;;;;;3.00;3.00;;;;;;;;5073939;28;52153;-54
2021/08/16 09:14:58;;;;;;;;;2.33;2.00;;;;;;;;5066352;28;50821;-50
2021/08/16 09:17:27;;;;;;;;;1.00;1.00;;;;;;;;5074668;28;51096;-54
2021/08/16 09:19:52;;;;;;;;;1.33;1.33;;;;;;;;5075169;28;51008;-52
2021/08/16 09:22:22;;;;;;;;;1.00;1.00;;;;;;;;5074279;28;51183;-54
2021/08/16 09:24:58;;;;;;;;;4.67;3.00;;;;;;;;5074719;28;50983;-54
2021/08/16 09:27:23;;;;;;;;;2.00;2.00;;;;;;;;5056615;28;51113;-54
2021/08/16 09:29:50;;;;;;;;;2.00;2.00;;;;;;;;5074710;28;51087;-51
2021/08/16 09:32:17;;;;;;;;;2.00;2.00;;;;;;;;5074737;28;52894;-53
2021/08/16 09:34:47;;;;;;;;;2.00;1.00;;;;;;;;5074109;28;50991;-51
2021/08/16 09:37:25;;;;;;;;;2.00;2.00;;;;;;;;5056407;28;51017;-55
2021/08/16 09:39:58;;;;;;;;;3.00;3.00;;;;;;;;5056160;28;51276;-51
2021/08/16 09:42:23;;;;;;;;;2.00;2.00;;;;;;;;5073862;28;51901;-51
2021/08/16 09:44:49;;;;;;;;;1.33;1.00;;;;;;;;5074066;28;51083;-53
2021/08/16 09:47:15;;;;;;;;;1.67;1.00;;;;;;;;5074293;28;51033;-53
2021/08/16 09:49:40;;;;;;;;;2.00;1.67;;;;;;;;5074240;28;51359;-53
2021/08/16 09:52:07;;;;;;;;;2.00;2.00;;;;;;;;5073334;28;51101;-52
2021/08/16 09:54:36;;;;;;;;;2.00;2.00;;;;;;;;5073630;28;50946;-53
2021/08/16 09:57:03;;;;;;;;;3.00;3.00;;;;;;;;5073612;28;50940;-53
2021/08/16 09:59:29;;;;;;;;;2.33;2.33;;;;;;;;5073626;28;51190;-52
2021/08/16 10:01:54;;;;;;;;;2.00;2.00;;;;;;;;5073551;27;53242;-55
2021/08/16 10:04:19;;;;;;;;;3.33;3.00;;;;;;;;5055397;28;51098;-54
2021/08/16 10:06:45;;;;;;;;;3.00;3.00;;;;;;;;5072344;28;51224;-55
2021/08/16 10:09:11;;;;;;;;;3.67;3.67;;;;;;;;5073786;28;51346;-54
2021/08/16 10:11:36;;;;;;;;;3.00;3.00;;;;;;;;5073561;28;52012;-57
2021/08/16 10:14:02;;;;;;;;;2.00;2.00;;;;;;;;5073303;28;51076;-54
2021/08/16 10:16:32;;;;;;;;;3.67;3.00;;;;;;;;5073539;28;50950;-55
2021/08/16 10:19:02;;;;;;;;;3.00;3.00;;;;;;;;5055535;28;50883;-53
2021/08/16 10:21:28;;;;;;;;;5.00;5.00;;;;;;;;5047086;28;52034;-52
2021/08/16 10:23:54;;;;;;;;;3.67;3.67;;;;;;;;5072041;28;50898;-54
2021/08/16 10:26:27;;;;;;;;;3.67;3.00;;;;;;;;5073390;28;50988;-53
2021/08/16 10:28:53;;;;;;;;;5.00;4.33;;;;;;;;5073266;28;51370;-54
2021/08/16 10:31:26;;;;;;;;;4.00;4.00;;;;;;;;5073032;28;50893;-55
2021/08/16 10:33:51;;;;;;;;;3.33;3.33;;;;;;;;5073449;28;51068;-54
2021/08/16 10:36:20;;;;;;;;;3.67;3.67;;;;;;;;5073404;28;51620;-53
2021/08/16 10:38:46;;;;;;;;;6.67;6.33;;;;;;;;5073387;28;51317;-53
2021/08/16 10:41:22;;;;;;;;;4.00;4.00;;;;;;;;5072521;28;52760;-53
2021/08/16 10:43:47;;;;;;;;;3.00;3.00;;;;;;;;5072774;28;50915;-51
2021/08/16 10:46:17;;;;;;;;;2.00;1.67;;;;;;;;5072836;28;50883;-55
2021/08/16 10:48:42;;;;;;;;;3.00;3.00;;;;;;;;5072688;28;51094;-53
2021/08/16 10:51:09;;;;;;;;;3.00;3.00;;;;;;;;5053206;28;53076;-54
2021/08/16 10:54:09;;;;;;;;;4.00;4.00;;;;;;;;5072062;27;51287;-52
2021/08/16 10:56:34;;;;;;;;;5.00;5.00;;;;;;;;4989352;28;51167;-54
2021/08/16 10:59:00;;;;;;;;;5.00;5.00;;;;;;;;5052606;28;50956;-49
2021/08/16 11:01:29;;;;;;;;;5.00;4.67;;;;;;;;5072063;28;51100;-54
2021/08/16 11:04:05;;;;;;;;;4.00;4.00;;;;;;;;5072652;28;51054;-53
2021/08/16 11:06:31;;;;;;;;;4.67;4.33;;;;;;;;5072872;28;51031;-55
2021/08/16 11:08:57;;;;;;;;;3.33;3.33;;;;;;;;5072607;28;50923;-54
2021/08/16 11:11:23;;;;;;;;;3.00;3.00;;;;;;;;5071871;28;50929;-54
2021/08/16 11:13:48;;;;;;;;;3.67;3.67;;;;;;;;5072000;28;51110;-52
2021/08/16 11:16:13;;;;;;;;;3.67;3.67;;;;;;;;5072490;28;50980;-54
2021/08/16 11:18:38;;;;;;;;;5.33;5.00;;;;;;;;5072141;28;51450;-54
2021/08/16 11:21:07;;;;;;;;;6.67;6.00;;;;;;;;5072564;28;51963;-52
2021/08/16 11:23:32;;;;;;;;;4.00;3.00;;;;;;;;5072230;28;51100;-54
2021/08/16 11:25:58;;;;;;;;;4.00;4.00;;;;;;;;5072533;28;50986;-54
2021/08/16 11:28:24;;;;;;;;;7.00;5.00;;;;;;;;5072486;28;51355;-52
2021/08/16 11:30:50;;;;;;;;;6.00;6.00;;;;;;;;5053840;28;51992;-53
2021/08/16 11:33:25;;;;;;;;;7.00;6.67;;;;;;;;5071948;28;51036;-52
2021/08/16 11:36:01;;;;;;;;;7.00;6.00;;;;;;;;5071896;28;50967;-52
2021/08/16 11:38:26;;;;;;;;;5.67;5.33;;;;;;;;5072226;28;51218;-54
2021/08/16 11:41:01;;;;;;;;;9.33;9.00;;;;;;;;5071298;28;51890;-52
2021/08/16 11:43:26;;;;;;;;;7.33;7.33;;;;;;;;5072160;28;50998;-54
2021/08/16 11:45:51;;;;;;;;;7.00;7.00;;;;;;;;5071715;28;51053;-53
2021/08/16 11:48:21;;;;;;;;;8.00;7.00;;;;;;;;5071626;28;51025;-55
2021/08/16 11:50:47;;;;;;;;;8.00;8.00;;;;;;;;5071406;28;51219;-54
2021/08/16 11:53:12;;;;;;;;;10.00;9.00;;;;;;;;5071330;28;50924;-54
2021/08/16 11:55:37;;;;;;;;;10.00;9.33;;;;;;;;5071245;28;50938;-55
2021/08/16 11:58:02;;;;;;;;;9.00;9.00;;;;;;;;5071957;28;51186;-54
2021/08/16 12:00:31;;;;;;;;;9.33;8.00;;;;;;;;5071338;28;51720;-54
2021/08/16 12:02:57;;;;;;;;;11.33;10.00;;;;;;;;5071962;28;50915;-55
2021/08/16 12:05:22;;;;;;;;;12.00;11.67;;;;;;;;5071761;28;51002;-54
2021/08/16 12:07:47;;;;;;;;;11.67;11.33;;;;;;;;5053446;28;51138;-54
2021/08/16 12:10:15;;;;;;;;;12.00;10.00;;;;;;;;5052794;28;52032;-54
2021/08/16 12:12:40;;;;;;;;;12.00;11.00;;;;;;;;5071473;28;50993;-53
2021/08/16 12:15:13;;;;;;;;;14.00;12.67;;;;;;;;5071584;28;51042;-53
2021/08/16 12:17:38;;;;;;;;;14.00;12.00;;;;;;;;5072200;28;51013;-55
2021/08/16 12:20:05;;;;;;;;;14.33;14.33;;;;;;;;5070991;28;52481;-52
2021/08/16 12:22:30;;;;;;;;;13.67;11.00;;;;;;;;5051594;28;51128;-55
2021/08/16 12:25:04;;;;;;;;;13.00;13.00;;;;;;;;5070885;28;50981;-51
2021/08/16 12:27:29;;;;;;;;;15.00;15.00;;;;;;;;5071576;28;51023;-54
2021/08/16 12:29:54;;;;;;;;;18.00;16.00;;;;;;;;5072501;28;51050;-51
2021/08/16 12:32:21;;;;;;;;;15.67;15.67;;;;;;;;5074877;28;51141;-53
2021/08/16 12:34:47;;;;;;;;;18.67;18.67;;;;;;;;5074834;28;51140;-53
2021/08/16 12:37:23;;;;;;;;;17.00;16.25;;;;;;;;5074773;28;51015;-54
2021/08/16 12:39:48;;;;;;;;;20.67;19.33;;;;;;;;5074443;28;52267;-54
2021/08/16 12:42:14;;;;;;;;;17.75;17.50;;;;;;;;5056022;28;50913;-55
2021/08/16 12:44:48;;;;;;;;;21.75;20.50;;;;;;;;5074568;28;50964;-55
2021/08/16 12:47:14;;;;;;;;;21.00;19.75;;;;;;;;5056877;28;50963;-55
2021/08/16 12:49:39;;;;;;;;;17.67;17.00;;;;;;;;5074173;28;51899;-54
2021/08/16 12:52:04;;;;;;;;;21.00;20.00;;;;;;;;5074721;28;50943;-53
2021/08/16 12:54:32;;;;;;;;;18.33;17.00;;;;;;;;5074655;28;51146;-52
2021/08/16 12:56:58;;;;;;;;;19.00;19.00;;;;;;;;5074624;28;51110;-55
2021/08/16 12:59:23;;;;;;;;;21.25;19.25;;;;;;;;5074202;28;51903;-52
2021/08/16 13:01:53;;;;;;;;;27.25;24.00;;;;;;;;5074746;28;51092;-53
2021/08/16 13:04:18;;;;;;;;;20.75;20.00;;;;;;;;5074330;28;51130;-54
2021/08/16 13:06:43;;;;;;;;;27.25;24.50;;;;;;;;5073774;28;51404;-54
2021/08/16 13:09:09;;;;;;;;;31.50;28.75;;;;;;;;5073724;28;50955;-52
2021/08/16 13:11:34;;;;;;;;;25.75;25.25;;;;;;;;5073654;28;50960;-54
2021/08/16 13:13:59;;;;;;;;;28.00;27.00;;;;;;;;5073742;28;50981;-54
2021/08/16 13:16:25;;;;;;;;;26.50;25.75;;;;;;;;5074348;28;51103;-52
2021/08/16 13:18:50;;;;;;;;;25.75;25.00;;;;;;;;5073424;28;52107;-53
2021/08/16 13:21:15;;;;;;;;;28.50;27.50;;;;;;;;5074122;28;50882;-54
2021/08/16 13:23:40;;;;;;;;;27.75;24.50;;;;;;;;5074041;28;50950;-54
2021/08/16 13:26:05;;;;;;;;;25.00;24.00;;;;;;;;5073988;28;50845;-53
2021/08/16 13:28:31;;;;;;;;;28.00;26.75;;;;;;;;5073198;28;53578;-54
2021/08/16 13:30:58;;;;;;;;;25.50;24.50;;;;;;;;5073841;28;51128;-54
2021/08/16 13:33:23;;;;;;;;;28.00;25.75;;;;;;;;5073891;28;51040;-54
2021/08/16 13:35:48;;;;;;;;;30.00;29.00;;;;;;;;5055824;28;51287;-54
2021/08/16 13:38:14;;;;;;;;;28.50;28.50;;;;;;;;5073354;28;51994;-53
2021/08/16 13:40:39;;;;;;;;;31.75;29.00;;;;;;;;5073331;28;51035;-53
2021/08/16 13:43:04;;;;;;;;;33.75;31.00;;;;;;;;5073423;28;50991;-53
2021/08/16 13:45:30;;;;;;;;;31.00;29.75;;;;;;;;5073835;28;50977;-54
2021/08/16 13:47:55;;;;;;;;;28.00;27.25;;;;;;;;5073453;28;51824;-52
2021/08/16 13:50:21;;;;;;;;;34.25;32.00;;;;;;;;5073554;28;50956;-52
2021/08/16 13:52:46;;;;;;;;;29.50;28.75;;;;;;;;5073312;28;51265;-53
2021/08/16 13:55:11;;;;;;;;;32.00;29.50;;;;;;;;5073192;28;51015;-53
2021/08/16 13:57:36;;;;;;;;;27.75;25.00;;;;;;;;5073054;28;51051;-53
2021/08/16 14:00:03;;;;;;;;;26.00;26.00;;;;;;;;5073087;28;50908;-52
2021/08/16 14:02:29;;;;;;;;;26.25;23.75;;;;;;;;5073479;28;51061;-53
2021/08/16 14:04:54;;;;;;;;;31.50;28.25;;;;;;;;5073635;28;51022;-52
2021/08/16 14:07:19;;;;;;;;;28.75;28.75;;;;;;;;5073171;28;52796;-54
2021/08/16 14:09:45;;;;;;;;;31.75;28.25;;;;;;;;5073450;28;50933;-54
2021/08/16 14:12:10;;;;;;;;;29.50;27.50;;;;;;;;5072920;28;50858;-53
2021/08/16 14:14:35;;;;;;;;;30.25;28.50;;;;;;;;5073504;28;51236;-51
2021/08/16 14:17:01;;;;;;;;;29.50;27.50;;;;;;;;5073132;28;52589;-53
2021/08/16 14:19:26;;;;;;;;;31.75;30.50;;;;;;;;5073061;28;50855;-53
2021/08/16 14:21:51;;;;;;;;;31.00;29.75;;;;;;;;5072743;28;51124;-52
2021/08/16 14:24:16;;;;;;;;;28.75;26.00;;;;;;;;5065142;27;51059;-52
2021/08/16 14:26:42;;;;;;;;;31.25;29.25;;;;;;;;5072353;28;53130;-53
2021/08/16 14:29:07;;;;;;;;;36.00;30.25;;;;;;;;5072949;28;50913;-54
2021/08/16 14:31:33;;;;;;;;;28.75;27.75;;;;;;;;5072527;28;51204;-55